sensor_id;sensor_type;location;lat;lon;timestamp;P1;durP1;ratioP1;P2;durP2;ratioP2
30243;SDS011;64022;53.652;9.792;2023-04-06T00:00:43;44.33;;;28.27;;
30243;SDS011;64022;53.652;9.792;2023-04-06T00:03:08;49.93;;;30.50;;
30243;SDS011;64022;53.652;9.792;2023-04-06T00:05:34;47.93;;;28.57;;
30243;SDS011;64022;53.652;9.792;2023-04-06T00:08:00;45.20;;;27.63;;
30243;SDS011;64022;53.652;9.792;2023-04-06T00:10:25;44.33;;;27.60;;
30243;SDS011;64022;53.652;9.792;2023-04-06T00:12:51;47.37;;;29.67;;
30243;SDS011;64022;53.652;9.792;2023-04-06T00:15:17;47.27;;;29.47;;
30243;SDS011;64022;53.652;9.792;2023-04-06T00:17:43;47.40;;;29.00;;
30243;SDS011;64022;53.652;9.792;2023-04-06T00:20:08;42.77;;;27.40;;
30243;SDS011;64022;53.652;9.792;2023-04-06T00:22:35;43.28;;;26.35;;
30243;SDS011;64022;53.652;9.792;2023-04-06T00:25:00;45.17;;;27.77;;
30243;SDS011;64022;53.652;9.792;2023-04-06T00:27:26;45.27;;;28.53;;
30243;SDS011;64022;53.652;9.792;2023-04-06T00:29:52;43.00;;;27.17;;
30243;SDS011;64022;53.652;9.792;2023-04-06T00:32:17;45.00;;;28.80;;
30243;SDS011;64022;53.652;9.792;2023-04-06T00:34:43;44.13;;;27.40;;
30243;SDS011;64022;53.652;9.792;2023-04-06T00:37:08;43.67;;;27.13;;
30243;SDS011;64022;53.652;9.792;2023-04-06T00:39:35;45.58;;;28.20;;
30243;SDS011;64022;53.652;9.792;2023-04-06T00:42:01;50.17;;;28.90;;
30243;SDS011;64022;53.652;9.792;2023-04-06T00:44:35;40.97;;;25.67;;
30243;SDS011;64022;53.652;9.792;2023-04-06T00:47:00;44.77;;;28.43;;
30243;SDS011;64022;53.652;9.792;2023-04-06T00:49:26;46.47;;;27.73;;
30243;SDS011;64022;53.652;9.792;2023-04-06T00:51:52;44.90;;;26.97;;
30243;SDS011;64022;53.652;9.792;2023-04-06T00:54:18;48.63;;;29.50;;
30243;SDS011;64022;53.652;9.792;2023-04-06T00:56:43;43.43;;;26.20;;
30243;SDS011;64022;53.652;9.792;2023-04-06T00:59:10;43.73;;;26.60;;
30243;SDS011;64022;53.652;9.792;2023-04-06T01:04:01;44.47;;;26.77;;
30243;SDS011;64022;53.652;9.792;2023-04-06T01:06:27;41.20;;;26.30;;
30243;SDS011;64022;53.652;9.792;2023-04-06T01:08:53;43.33;;;25.90;;
30243;SDS011;64022;53.652;9.792;2023-04-06T01:11:19;43.07;;;26.60;;
30243;SDS011;64022;53.652;9.792;2023-04-06T01:13:45;42.33;;;26.30;;
30243;SDS011;64022;53.652;9.792;2023-04-06T01:16:11;45.50;;;27.83;;
30243;SDS011;64022;53.652;9.792;2023-04-06T01:18:37;42.43;;;26.30;;
30243;SDS011;64022;53.652;9.792;2023-04-06T01:21:03;42.10;;;25.63;;
30243;SDS011;64022;53.652;9.792;2023-04-06T01:23:29;42.30;;;25.77;;
30243;SDS011;64022;53.652;9.792;2023-04-06T01:25:54;42.63;;;25.50;;
30243;SDS011;64022;53.652;9.792;2023-04-06T01:28:20;42.93;;;26.40;;
30243;SDS011;64022;53.652;9.792;2023-04-06T01:30:46;42.87;;;26.27;;
30243;SDS011;64022;53.652;9.792;2023-04-06T01:33:11;40.70;;;26.03;;
30243;SDS011;64022;53.652;9.792;2023-04-06T01:35:37;41.33;;;25.97;;
30243;SDS011;64022;53.652;9.792;2023-04-06T01:38:02;41.37;;;26.97;;
30243;SDS011;64022;53.652;9.792;2023-04-06T01:40:28;42.27;;;26.37;;
30243;SDS011;64022;53.652;9.792;2023-04-06T01:42:54;40.23;;;24.90;;
30243;SDS011;64022;53.652;9.792;2023-04-06T01:45:20;41.07;;;25.40;;
30243;SDS011;64022;53.652;9.792;2023-04-06T01:47:45;37.93;;;25.00;;
30243;SDS011;64022;53.652;9.792;2023-04-06T01:50:11;40.97;;;25.03;;
30243;SDS011;64022;53.652;9.792;2023-04-06T01:52:37;40.13;;;25.77;;
30243;SDS011;64022;53.652;9.792;2023-04-06T01:55:03;39.67;;;25.03;;
30243;SDS011;64022;53.652;9.792;2023-04-06T01:57:29;42.67;;;25.30;;
30243;SDS011;64022;53.652;9.792;2023-04-06T01:59:54;38.70;;;24.40;;
30243;SDS011;64022;53.652;9.792;2023-04-06T02:02:20;42.90;;;25.80;;
30243;SDS011;64022;53.652;9.792;2023-04-06T02:04:45;39.93;;;24.47;;
30243;SDS011;64022;53.652;9.792;2023-04-06T02:07:11;38.33;;;24.30;;
30243;SDS011;64022;53.652;9.792;2023-04-06T02:09:36;40.27;;;24.93;;
30243;SDS011;64022;53.652;9.792;2023-04-06T02:12:02;37.23;;;24.10;;
30243;SDS011;64022;53.652;9.792;2023-04-06T02:14:28;35.87;;;23.83;;
30243;SDS011;64022;53.652;9.792;2023-04-06T02:16:53;37.57;;;23.93;;
30243;SDS011;64022;53.652;9.792;2023-04-06T02:19:19;36.93;;;23.67;;
30243;SDS011;64022;53.652;9.792;2023-04-06T02:21:44;37.03;;;24.10;;
30243;SDS011;64022;53.652;9.792;2023-04-06T02:24:10;36.93;;;23.67;;
30243;SDS011;64022;53.652;9.792;2023-04-06T02:26:35;39.63;;;24.53;;
30243;SDS011;64022;53.652;9.792;2023-04-06T02:29:01;39.77;;;25.03;;
30243;SDS011;64022;53.652;9.792;2023-04-06T02:31:27;36.13;;;23.00;;
30243;SDS011;64022;53.652;9.792;2023-04-06T02:33:53;37.93;;;23.43;;
30243;SDS011;64022;53.652;9.792;2023-04-06T02:36:18;39.27;;;23.17;;
30243;SDS011;64022;53.652;9.792;2023-04-06T02:38:44;35.03;;;22.90;;
30243;SDS011;64022;53.652;9.792;2023-04-06T02:41:10;38.03;;;23.20;;
30243;SDS011;64022;53.652;9.792;2023-04-06T02:43:35;33.90;;;21.70;;
30243;SDS011;64022;53.652;9.792;2023-04-06T02:46:01;35.17;;;21.47;;
30243;SDS011;64022;53.652;9.792;2023-04-06T02:48:26;30.17;;;18.50;;
30243;SDS011;64022;53.652;9.792;2023-04-06T02:50:52;34.97;;;20.90;;
30243;SDS011;64022;53.652;9.792;2023-04-06T02:53:18;30.13;;;19.10;;
30243;SDS011;64022;53.652;9.792;2023-04-06T02:55:43;31.10;;;19.47;;
30243;SDS011;64022;53.652;9.792;2023-04-06T02:58:09;32.97;;;20.27;;
30243;SDS011;64022;53.652;9.792;2023-04-06T03:00:34;29.60;;;18.87;;
30243;SDS011;64022;53.652;9.792;2023-04-06T03:03:01;31.75;;;20.25;;
30243;SDS011;64022;53.652;9.792;2023-04-06T03:05:27;32.10;;;19.63;;
30243;SDS011;64022;53.652;9.792;2023-04-06T03:07:53;28.75;;;19.35;;
30243;SDS011;64022;53.652;9.792;2023-04-06T03:10:18;29.73;;;18.60;;
30243;SDS011;64022;53.652;9.792;2023-04-06T03:12:44;29.30;;;18.73;;
30243;SDS011;64022;53.652;9.792;2023-04-06T03:15:10;30.30;;;18.87;;
30243;SDS011;64022;53.652;9.792;2023-04-06T03:17:36;29.27;;;18.45;;
30243;SDS011;64022;53.652;9.792;2023-04-06T03:20:01;30.10;;;19.07;;
30243;SDS011;64022;53.652;9.792;2023-04-06T03:22:28;28.88;;;17.52;;
30243;SDS011;64022;53.652;9.792;2023-04-06T03:24:54;28.75;;;17.77;;
30243;SDS011;64022;53.652;9.792;2023-04-06T03:27:19;29.83;;;18.37;;
30243;SDS011;64022;53.652;9.792;2023-04-06T03:29:45;31.70;;;18.07;;
30243;SDS011;64022;53.652;9.792;2023-04-06T03:32:11;30.37;;;16.50;;
30243;SDS011;64022;53.652;9.792;2023-04-06T03:34:36;31.30;;;18.70;;
30243;SDS011;64022;53.652;9.792;2023-04-06T03:37:02;29.45;;;17.77;;
30243;SDS011;64022;53.652;9.792;2023-04-06T03:39:28;28.70;;;18.33;;
30243;SDS011;64022;53.652;9.792;2023-04-06T03:41:54;29.95;;;17.77;;
30243;SDS011;64022;53.652;9.792;2023-04-06T03:44:19;29.10;;;18.10;;
30243;SDS011;64022;53.652;9.792;2023-04-06T03:46:45;29.53;;;17.17;;
30243;SDS011;64022;53.652;9.792;2023-04-06T03:49:10;29.37;;;17.37;;
30243;SDS011;64022;53.652;9.792;2023-04-06T03:51:36;29.43;;;17.53;;
30243;SDS011;64022;53.652;9.792;2023-04-06T03:54:01;28.90;;;17.47;;
30243;SDS011;64022;53.652;9.792;2023-04-06T03:56:27;28.63;;;17.17;;
30243;SDS011;64022;53.652;9.792;2023-04-06T03:58:53;31.47;;;18.07;;
30243;SDS011;64022;53.652;9.792;2023-04-06T04:01:18;29.63;;;17.60;;
30243;SDS011;64022;53.652;9.792;2023-04-06T04:03:45;30.47;;;16.63;;
30243;SDS011;64022;53.652;9.792;2023-04-06T04:08:36;28.98;;;16.88;;
30243;SDS011;64022;53.652;9.792;2023-04-06T04:11:02;30.90;;;18.13;;
30243;SDS011;64022;53.652;9.792;2023-04-06T04:13:27;27.63;;;17.80;;
30243;SDS011;64022;53.652;9.792;2023-04-06T04:15:53;33.70;;;17.13;;
30243;SDS011;64022;53.652;9.792;2023-04-06T04:18:18;27.00;;;17.07;;
30243;SDS011;64022;53.652;9.792;2023-04-06T04:20:45;29.40;;;17.07;;
30243;SDS011;64022;53.652;9.792;2023-04-06T04:23:10;28.05;;;16.92;;
30243;SDS011;64022;53.652;9.792;2023-04-06T04:25:36;27.33;;;16.97;;
30243;SDS011;64022;53.652;9.792;2023-04-06T04:28:02;29.87;;;18.07;;
30243;SDS011;64022;53.652;9.792;2023-04-06T04:30:27;24.83;;;15.77;;
30243;SDS011;64022;53.652;9.792;2023-04-06T04:32:53;28.37;;;15.67;;
30243;SDS011;64022;53.652;9.792;2023-04-06T04:35:19;26.03;;;16.30;;
30243;SDS011;64022;53.652;9.792;2023-04-06T04:37:44;23.70;;;14.97;;
30243;SDS011;64022;53.652;9.792;2023-04-06T04:40:11;29.27;;;17.13;;
30243;SDS011;64022;53.652;9.792;2023-04-06T04:42:37;24.15;;;15.70;;
30243;SDS011;64022;53.652;9.792;2023-04-06T04:45:02;25.83;;;15.87;;
30243;SDS011;64022;53.652;9.792;2023-04-06T04:47:28;28.40;;;16.37;;
30243;SDS011;64022;53.652;9.792;2023-04-06T04:49:54;26.65;;;15.82;;
30243;SDS011;64022;53.652;9.792;2023-04-06T04:52:19;25.30;;;15.20;;
30243;SDS011;64022;53.652;9.792;2023-04-06T04:54:45;28.00;;;16.87;;
30243;SDS011;64022;53.652;9.792;2023-04-06T04:59:37;22.52;;;14.82;;
30243;SDS011;64022;53.652;9.792;2023-04-06T05:02:03;24.60;;;14.93;;
30243;SDS011;64022;53.652;9.792;2023-04-06T05:04:28;23.87;;;15.37;;
30243;SDS011;64022;53.652;9.792;2023-04-06T05:07:07;22.87;;;15.13;;
30243;SDS011;64022;53.652;9.792;2023-04-06T05:09:33;24.90;;;15.98;;
30243;SDS011;64022;53.652;9.792;2023-04-06T05:11:59;25.55;;;15.90;;
30243;SDS011;64022;53.652;9.792;2023-04-06T05:14:26;24.00;;;15.03;;
30243;SDS011;64022;53.652;9.792;2023-04-06T05:16:52;24.33;;;15.68;;
30243;SDS011;64022;53.652;9.792;2023-04-06T05:19:18;26.23;;;15.60;;
30243;SDS011;64022;53.652;9.792;2023-04-06T05:21:44;24.23;;;15.60;;
30243;SDS011;64022;53.652;9.792;2023-04-06T05:24:09;26.27;;;15.57;;
30243;SDS011;64022;53.652;9.792;2023-04-06T05:26:35;22.13;;;14.47;;
30243;SDS011;64022;53.652;9.792;2023-04-06T05:29:00;24.17;;;14.97;;
30243;SDS011;64022;53.652;9.792;2023-04-06T05:31:26;22.93;;;15.43;;
30243;SDS011;64022;53.652;9.792;2023-04-06T05:33:52;23.50;;;14.15;;
30243;SDS011;64022;53.652;9.792;2023-04-06T05:36:17;25.97;;;14.80;;
30243;SDS011;64022;53.652;9.792;2023-04-06T05:38:43;19.70;;;13.37;;
30243;SDS011;64022;53.652;9.792;2023-04-06T05:41:09;23.93;;;13.80;;
30243;SDS011;64022;53.652;9.792;2023-04-06T05:43:35;22.80;;;14.47;;
30243;SDS011;64022;53.652;9.792;2023-04-06T05:46:01;22.48;;;13.27;;
30243;SDS011;64022;53.652;9.792;2023-04-06T05:48:27;24.30;;;13.47;;
30243;SDS011;64022;53.652;9.792;2023-04-06T05:50:52;22.77;;;14.57;;
30243;SDS011;64022;53.652;9.792;2023-04-06T05:53:18;22.07;;;14.13;;
30243;SDS011;64022;53.652;9.792;2023-04-06T05:55:46;21.75;;;14.20;;
30243;SDS011;64022;53.652;9.792;2023-04-06T05:58:13;24.50;;;15.30;;
30243;SDS011;64022;53.652;9.792;2023-04-06T06:03:05;23.02;;;13.57;;
30243;SDS011;64022;53.652;9.792;2023-04-06T06:05:33;21.67;;;14.38;;
30243;SDS011;64022;53.652;9.792;2023-04-06T06:07:59;25.10;;;14.23;;
30243;SDS011;64022;53.652;9.792;2023-04-06T06:10:27;23.25;;;14.93;;
30243;SDS011;64022;53.652;9.792;2023-04-06T06:12:53;23.10;;;15.43;;
30243;SDS011;64022;53.652;9.792;2023-04-06T06:15:18;24.73;;;15.80;;
30243;SDS011;64022;53.652;9.792;2023-04-06T06:17:44;25.75;;;16.00;;
30243;SDS011;64022;53.652;9.792;2023-04-06T06:20:09;23.53;;;14.97;;
30243;SDS011;64022;53.652;9.792;2023-04-06T06:22:35;24.93;;;16.20;;
30243;SDS011;64022;53.652;9.792;2023-04-06T06:25:01;24.93;;;15.17;;
30243;SDS011;64022;53.652;9.792;2023-04-06T06:27:27;24.40;;;14.93;;
30243;SDS011;64022;53.652;9.792;2023-04-06T06:29:53;24.80;;;15.77;;
30243;SDS011;64022;53.652;9.792;2023-04-06T06:32:19;23.53;;;14.40;;
30243;SDS011;64022;53.652;9.792;2023-04-06T06:34:45;21.10;;;14.27;;
30243;SDS011;64022;53.652;9.792;2023-04-06T06:37:10;22.70;;;15.20;;
30243;SDS011;64022;53.652;9.792;2023-04-06T06:39:36;24.27;;;15.23;;
30243;SDS011;64022;53.652;9.792;2023-04-06T06:42:01;26.77;;;15.97;;
30243;SDS011;64022;53.652;9.792;2023-04-06T06:44:27;26.63;;;16.53;;
30243;SDS011;64022;53.652;9.792;2023-04-06T06:46:53;22.70;;;14.17;;
30243;SDS011;64022;53.652;9.792;2023-04-06T06:49:19;26.07;;;14.37;;
30243;SDS011;64022;53.652;9.792;2023-04-06T06:51:45;22.23;;;14.90;;
30243;SDS011;64022;53.652;9.792;2023-04-06T06:54:11;23.33;;;15.30;;
30243;SDS011;64022;53.652;9.792;2023-04-06T06:56:37;23.27;;;14.02;;
30243;SDS011;64022;53.652;9.792;2023-04-06T06:59:04;20.77;;;12.73;;
30243;SDS011;64022;53.652;9.792;2023-04-06T07:01:32;22.23;;;14.32;;
30243;SDS011;64022;53.652;9.792;2023-04-06T07:03:59;21.48;;;14.10;;
30243;SDS011;64022;53.652;9.792;2023-04-06T07:06:24;23.93;;;14.47;;
30243;SDS011;64022;53.652;9.792;2023-04-06T07:08:50;22.37;;;13.47;;
30243;SDS011;64022;53.652;9.792;2023-04-06T07:11:15;22.90;;;14.43;;
30243;SDS011;64022;53.652;9.792;2023-04-06T07:13:42;21.13;;;13.63;;
30243;SDS011;64022;53.652;9.792;2023-04-06T07:16:07;20.40;;;13.82;;
30243;SDS011;64022;53.652;9.792;2023-04-06T07:18:33;24.10;;;13.37;;
30243;SDS011;64022;53.652;9.792;2023-04-06T07:20:58;22.43;;;14.40;;
30243;SDS011;64022;53.652;9.792;2023-04-06T07:23:24;20.73;;;13.47;;
30243;SDS011;64022;53.652;9.792;2023-04-06T07:25:49;22.60;;;14.07;;
30243;SDS011;64022;53.652;9.792;2023-04-06T07:28:19;20.08;;;13.15;;
30243;SDS011;64022;53.652;9.792;2023-04-06T07:30:45;20.20;;;13.83;;
30243;SDS011;64022;53.652;9.792;2023-04-06T07:33:10;20.53;;;13.20;;
30243;SDS011;64022;53.652;9.792;2023-04-06T07:35:36;21.83;;;14.33;;
30243;SDS011;64022;53.652;9.792;2023-04-06T07:38:02;20.48;;;13.50;;
30243;SDS011;64022;53.652;9.792;2023-04-06T07:40:29;23.53;;;13.37;;
30243;SDS011;64022;53.652;9.792;2023-04-06T07:42:56;20.02;;;13.23;;
30243;SDS011;64022;53.652;9.792;2023-04-06T07:45:22;19.73;;;12.90;;
30243;SDS011;64022;53.652;9.792;2023-04-06T07:47:48;18.47;;;12.23;;
30243;SDS011;64022;53.652;9.792;2023-04-06T07:50:14;19.10;;;12.88;;
30243;SDS011;64022;53.652;9.792;2023-04-06T07:52:40;20.90;;;13.30;;
30243;SDS011;64022;53.652;9.792;2023-04-06T07:55:06;23.83;;;13.50;;
30243;SDS011;64022;53.652;9.792;2023-04-06T07:57:32;20.80;;;13.27;;
30243;SDS011;64022;53.652;9.792;2023-04-06T07:59:57;19.93;;;12.67;;
30243;SDS011;64022;53.652;9.792;2023-04-06T08:02:23;20.90;;;13.00;;
30243;SDS011;64022;53.652;9.792;2023-04-06T08:04:48;18.47;;;12.03;;
30243;SDS011;64022;53.652;9.792;2023-04-06T08:09:41;18.88;;;12.15;;
30243;SDS011;64022;53.652;9.792;2023-04-06T08:12:07;20.67;;;12.83;;
30243;SDS011;64022;53.652;9.792;2023-04-06T08:14:33;18.03;;;12.43;;
30243;SDS011;64022;53.652;9.792;2023-04-06T08:16:59;20.13;;;12.48;;
30243;SDS011;64022;53.652;9.792;2023-04-06T08:19:25;20.00;;;12.50;;
30243;SDS011;64022;53.652;9.792;2023-04-06T08:21:50;19.43;;;12.30;;
30243;SDS011;64022;53.652;9.792;2023-04-06T08:24:16;21.27;;;13.00;;
30243;SDS011;64022;53.652;9.792;2023-04-06T08:26:42;20.83;;;11.57;;
30243;SDS011;64022;53.652;9.792;2023-04-06T08:29:07;21.43;;;12.63;;
30243;SDS011;64022;53.652;9.792;2023-04-06T08:31:33;22.33;;;12.33;;
30243;SDS011;64022;53.652;9.792;2023-04-06T08:33:59;23.55;;;13.63;;
30243;SDS011;64022;53.652;9.792;2023-04-06T08:36:25;23.70;;;14.77;;
30243;SDS011;64022;53.652;9.792;2023-04-06T08:38:51;23.60;;;14.60;;
30243;SDS011;64022;53.652;9.792;2023-04-06T08:41:17;30.80;;;14.40;;
30243;SDS011;64022;53.652;9.792;2023-04-06T08:43:43;29.93;;;15.00;;
30243;SDS011;64022;53.652;9.792;2023-04-06T08:46:09;35.40;;;14.82;;
30243;SDS011;64022;53.652;9.792;2023-04-06T08:48:36;36.80;;;15.18;;
30243;SDS011;64022;53.652;9.792;2023-04-06T08:51:03;35.92;;;15.77;;
30243;SDS011;64022;53.652;9.792;2023-04-06T08:53:29;38.92;;;16.40;;
30243;SDS011;64022;53.652;9.792;2023-04-06T08:55:55;42.50;;;13.80;;
30243;SDS011;64022;53.652;9.792;2023-04-06T08:58:23;31.67;;;12.55;;
30243;SDS011;64022;53.652;9.792;2023-04-06T09:00:49;30.55;;;10.40;;
30243;SDS011;64022;53.652;9.792;2023-04-06T09:03:17;23.52;;;9.70;;
30243;SDS011;64022;53.652;9.792;2023-04-06T09:05:44;27.00;;;9.57;;
30243;SDS011;64022;53.652;9.792;2023-04-06T09:08:11;19.30;;;8.68;;
30243;SDS011;64022;53.652;9.792;2023-04-06T09:10:41;17.05;;;7.47;;
30243;SDS011;64022;53.652;9.792;2023-04-06T09:13:07;19.38;;;7.65;;
30243;SDS011;64022;53.652;9.792;2023-04-06T09:15:33;17.98;;;7.88;;
30243;SDS011;64022;53.652;9.792;2023-04-06T09:17:59;22.88;;;7.97;;
30243;SDS011;64022;53.652;9.792;2023-04-06T09:20:25;30.93;;;8.93;;
30243;SDS011;64022;53.652;9.792;2023-04-06T09:22:52;25.00;;;8.48;;
30243;SDS011;64022;53.652;9.792;2023-04-06T09:25:19;28.93;;;9.07;;
30243;SDS011;64022;53.652;9.792;2023-04-06T09:27:46;29.02;;;9.43;;
30243;SDS011;64022;53.652;9.792;2023-04-06T09:30:11;27.50;;;10.53;;
30243;SDS011;64022;53.652;9.792;2023-04-06T09:35:17;30.33;;;10.07;;
30243;SDS011;64022;53.652;9.792;2023-04-06T09:37:47;30.25;;;9.80;;
30243;SDS011;64022;53.652;9.792;2023-04-06T09:42:42;24.75;;;9.15;;
30243;SDS011;64022;53.652;9.792;2023-04-06T09:45:07;34.58;;;8.70;;
30243;SDS011;64022;53.652;9.792;2023-04-06T09:47:35;25.73;;;9.05;;
30243;SDS011;64022;53.652;9.792;2023-04-06T09:50:02;23.38;;;8.82;;
30243;SDS011;64022;53.652;9.792;2023-04-06T09:52:32;34.03;;;9.70;;
30243;SDS011;64022;53.652;9.792;2023-04-06T09:55:03;30.50;;;9.60;;
30243;SDS011;64022;53.652;9.792;2023-04-06T09:57:50;33.53;;;10.70;;
30243;SDS011;64022;53.652;9.792;2023-04-06T10:00:43;28.65;;;9.40;;
30243;SDS011;64022;53.652;9.792;2023-04-06T10:03:14;31.90;;;8.95;;
30243;SDS011;64022;53.652;9.792;2023-04-06T10:05:50;27.33;;;9.90;;
30243;SDS011;64022;53.652;9.792;2023-04-06T10:08:20;29.88;;;9.60;;
30243;SDS011;64022;53.652;9.792;2023-04-06T10:10:52;25.35;;;9.43;;
30243;SDS011;64022;53.652;9.792;2023-04-06T10:13:19;25.55;;;9.52;;
30243;SDS011;64022;53.652;9.792;2023-04-06T10:15:45;31.73;;;10.47;;
30243;SDS011;64022;53.652;9.792;2023-04-06T10:18:12;28.10;;;9.50;;
30243;SDS011;64022;53.652;9.792;2023-04-06T10:20:42;25.88;;;9.00;;
30243;SDS011;64022;53.652;9.792;2023-04-06T10:25:58;30.63;;;10.07;;
30243;SDS011;64022;53.652;9.792;2023-04-06T10:28:26;31.92;;;10.65;;
30243;SDS011;64022;53.652;9.792;2023-04-06T10:31:01;29.25;;;10.10;;
30243;SDS011;64022;53.652;9.792;2023-04-06T10:33:29;23.10;;;8.90;;
30243;SDS011;64022;53.652;9.792;2023-04-06T10:35:55;27.00;;;10.00;;
30243;SDS011;64022;53.652;9.792;2023-04-06T10:38:21;33.10;;;10.70;;
30243;SDS011;64022;53.652;9.792;2023-04-06T10:41:06;22.67;;;9.75;;
30243;SDS011;64022;53.652;9.792;2023-04-06T10:43:33;24.80;;;10.30;;
30243;SDS011;64022;53.652;9.792;2023-04-06T10:46:00;22.83;;;10.13;;
30243;SDS011;64022;53.652;9.792;2023-04-06T10:48:39;28.53;;;10.20;;
30243;SDS011;64022;53.652;9.792;2023-04-06T10:51:10;20.98;;;9.25;;
30243;SDS011;64022;53.652;9.792;2023-04-06T10:53:37;33.92;;;10.63;;
30243;SDS011;64022;53.652;9.792;2023-04-06T10:56:04;32.80;;;10.93;;
30243;SDS011;64022;53.652;9.792;2023-04-06T10:58:38;28.67;;;10.98;;
30243;SDS011;64022;53.652;9.792;2023-04-06T11:01:10;28.35;;;10.77;;
30243;SDS011;64022;53.652;9.792;2023-04-06T11:03:46;25.17;;;9.88;;
30243;SDS011;64022;53.652;9.792;2023-04-06T11:06:22;23.90;;;10.52;;
30243;SDS011;64022;53.652;9.792;2023-04-06T11:08:49;26.55;;;11.52;;
30243;SDS011;64022;53.652;9.792;2023-04-06T11:11:16;22.77;;;11.02;;
30243;SDS011;64022;53.652;9.792;2023-04-06T11:13:44;26.25;;;10.82;;
30243;SDS011;64022;53.652;9.792;2023-04-06T11:16:18;34.17;;;12.23;;
30243;SDS011;64022;53.652;9.792;2023-04-06T11:18:58;31.08;;;11.63;;
30243;SDS011;64022;53.652;9.792;2023-04-06T11:21:32;26.88;;;11.55;;
30243;SDS011;64022;53.652;9.792;2023-04-06T11:26:37;27.08;;;11.52;;
30243;SDS011;64022;53.652;9.792;2023-04-06T11:29:04;28.45;;;11.43;;
30243;SDS011;64022;53.652;9.792;2023-04-06T11:31:30;31.20;;;11.68;;
30243;SDS011;64022;53.652;9.792;2023-04-06T11:33:56;31.37;;;11.83;;
30243;SDS011;64022;53.652;9.792;2023-04-06T11:36:22;28.77;;;12.70;;
30243;SDS011;64022;53.652;9.792;2023-04-06T11:38:48;31.13;;;11.80;;
30243;SDS011;64022;53.652;9.792;2023-04-06T11:41:14;24.53;;;12.47;;
30243;SDS011;64022;53.652;9.792;2023-04-06T11:43:45;32.17;;;11.73;;
30243;SDS011;64022;53.652;9.792;2023-04-06T11:46:16;27.17;;;11.65;;
30243;SDS011;64022;53.652;9.792;2023-04-06T11:48:46;27.35;;;11.55;;
30243;SDS011;64022;53.652;9.792;2023-04-06T11:51:11;29.83;;;11.70;;
30243;SDS011;64022;53.652;9.792;2023-04-06T11:53:46;34.00;;;13.20;;
30243;SDS011;64022;53.652;9.792;2023-04-06T11:56:22;30.73;;;12.75;;
30243;SDS011;64022;53.652;9.792;2023-04-06T11:58:51;32.00;;;12.98;;
30243;SDS011;64022;53.652;9.792;2023-04-06T12:01:17;35.53;;;11.75;;
30243;SDS011;64022;53.652;9.792;2023-04-06T12:03:42;28.00;;;12.93;;
30243;SDS011;64022;53.652;9.792;2023-04-06T12:06:08;25.23;;;11.50;;
30243;SDS011;64022;53.652;9.792;2023-04-06T12:08:34;27.83;;;11.87;;
30243;SDS011;64022;53.652;9.792;2023-04-06T12:10:59;32.50;;;13.07;;
30243;SDS011;64022;53.652;9.792;2023-04-06T12:13:25;30.93;;;13.53;;
30243;SDS011;64022;53.652;9.792;2023-04-06T12:15:51;27.67;;;12.00;;
30243;SDS011;64022;53.652;9.792;2023-04-06T12:18:16;27.17;;;11.80;;
30243;SDS011;64022;53.652;9.792;2023-04-06T12:20:42;28.57;;;12.33;;
30243;SDS011;64022;53.652;9.792;2023-04-06T12:23:08;28.05;;;12.20;;
30243;SDS011;64022;53.652;9.792;2023-04-06T12:25:34;34.77;;;13.67;;
30243;SDS011;64022;53.652;9.792;2023-04-06T12:27:59;30.00;;;12.87;;
30243;SDS011;64022;53.652;9.792;2023-04-06T12:30:25;29.77;;;12.70;;
30243;SDS011;64022;53.652;9.792;2023-04-06T12:32:50;28.13;;;12.93;;
30243;SDS011;64022;53.652;9.792;2023-04-06T12:35:17;29.58;;;12.25;;
30243;SDS011;64022;53.652;9.792;2023-04-06T12:37:43;26.90;;;12.50;;
30243;SDS011;64022;53.652;9.792;2023-04-06T12:40:09;29.33;;;14.83;;
30243;SDS011;64022;53.652;9.792;2023-04-06T12:42:36;26.35;;;13.38;;
30243;SDS011;64022;53.652;9.792;2023-04-06T12:45:05;29.35;;;14.00;;
30243;SDS011;64022;53.652;9.792;2023-04-06T12:47:31;30.20;;;14.00;;
30243;SDS011;64022;53.652;9.792;2023-04-06T12:49:57;29.00;;;14.33;;
30243;SDS011;64022;53.652;9.792;2023-04-06T12:52:22;23.83;;;13.10;;
30243;SDS011;64022;53.652;9.792;2023-04-06T12:54:48;30.73;;;14.23;;
30243;SDS011;64022;53.652;9.792;2023-04-06T12:57:14;34.35;;;14.40;;
30243;SDS011;64022;53.652;9.792;2023-04-06T12:59:42;30.60;;;14.90;;
30243;SDS011;64022;53.652;9.792;2023-04-06T13:02:09;28.83;;;13.40;;
30243;SDS011;64022;53.652;9.792;2023-04-06T13:04:35;31.47;;;14.97;;
30243;SDS011;64022;53.652;9.792;2023-04-06T13:07:01;30.87;;;15.17;;
30243;SDS011;64022;53.652;9.792;2023-04-06T13:09:26;30.57;;;13.67;;
30243;SDS011;64022;53.652;9.792;2023-04-06T13:11:52;30.17;;;14.27;;
30243;SDS011;64022;53.652;9.792;2023-04-06T13:14:18;31.23;;;14.80;;
30243;SDS011;64022;53.652;9.792;2023-04-06T13:16:43;26.77;;;14.13;;
30243;SDS011;64022;53.652;9.792;2023-04-06T13:19:09;32.60;;;15.33;;
30243;SDS011;64022;53.652;9.792;2023-04-06T13:21:35;28.80;;;13.55;;
30243;SDS011;64022;53.652;9.792;2023-04-06T13:24:01;28.33;;;13.77;;
30243;SDS011;64022;53.652;9.792;2023-04-06T13:26:26;25.33;;;14.10;;
30243;SDS011;64022;53.652;9.792;2023-04-06T13:28:53;26.83;;;14.70;;
30243;SDS011;64022;53.652;9.792;2023-04-06T13:31:21;25.75;;;13.88;;
30243;SDS011;64022;53.652;9.792;2023-04-06T13:33:46;27.07;;;15.23;;
30243;SDS011;64022;53.652;9.792;2023-04-06T13:36:12;32.63;;;14.83;;
30243;SDS011;64022;53.652;9.792;2023-04-06T13:38:37;32.30;;;14.50;;
30243;SDS011;64022;53.652;9.792;2023-04-06T13:41:04;25.00;;;15.40;;
30243;SDS011;64022;53.652;9.792;2023-04-06T13:43:30;24.48;;;13.93;;
30243;SDS011;64022;53.652;9.792;2023-04-06T13:45:56;25.47;;;13.87;;
30243;SDS011;64022;53.652;9.792;2023-04-06T13:48:24;28.17;;;13.73;;
30243;SDS011;64022;53.652;9.792;2023-04-06T13:50:51;30.35;;;15.48;;
30243;SDS011;64022;53.652;9.792;2023-04-06T13:53:17;27.67;;;14.63;;
30243;SDS011;64022;53.652;9.792;2023-04-06T13:55:43;21.92;;;11.20;;
30243;SDS011;64022;53.652;9.792;2023-04-06T13:58:09;15.43;;;9.40;;
30243;SDS011;64022;53.652;9.792;2023-04-06T14:00:35;15.73;;;9.60;;
30243;SDS011;64022;53.652;9.792;2023-04-06T14:03:01;16.25;;;9.60;;
30243;SDS011;64022;53.652;9.792;2023-04-06T14:05:30;14.13;;;8.43;;
30243;SDS011;64022;53.652;9.792;2023-04-06T14:07:57;15.02;;;7.95;;
30243;SDS011;64022;53.652;9.792;2023-04-06T14:10:22;13.13;;;8.17;;
30243;SDS011;64022;53.652;9.792;2023-04-06T14:12:51;11.00;;;7.38;;
30243;SDS011;64022;53.652;9.792;2023-04-06T14:15:17;15.98;;;7.72;;
30243;SDS011;64022;53.652;9.792;2023-04-06T14:17:43;14.40;;;8.35;;
30243;SDS011;64022;53.652;9.792;2023-04-06T14:20:09;14.83;;;7.90;;
30243;SDS011;64022;53.652;9.792;2023-04-06T14:22:39;14.90;;;8.90;;
30243;SDS011;64022;53.652;9.792;2023-04-06T14:25:06;18.63;;;9.25;;
30243;SDS011;64022;53.652;9.792;2023-04-06T14:27:32;17.73;;;8.60;;
30243;SDS011;64022;53.652;9.792;2023-04-06T14:29:57;15.87;;;8.53;;
30243;SDS011;64022;53.652;9.792;2023-04-06T14:32:23;13.80;;;8.77;;
30243;SDS011;64022;53.652;9.792;2023-04-06T14:34:49;15.20;;;8.23;;
30243;SDS011;64022;53.652;9.792;2023-04-06T14:37:15;15.97;;;8.50;;
30243;SDS011;64022;53.652;9.792;2023-04-06T14:39:42;13.05;;;8.40;;
30243;SDS011;64022;53.652;9.792;2023-04-06T14:42:08;18.67;;;8.90;;